Time;durP1;ratioP1;P1;durP2;ratioP2;P2;SDS_P1;SDS_P2;PMS_P1;PMS_P2;Temp;Humidity;BMP_temperature;BMP_pressure;BME280_temperature;BME280_humidity;BME280_pressure;Samples;Min_cycle;Max_cycle;Signal;HPM_P1;HPM_P2
2023/07/11 00:00:44;;;;;;;9.45;6.40;;;22.50;61.00;;;;;;5053618;28;20359;-72
2023/07/11 00:03:11;;;;;;;7.88;5.82;;;22.30;61.30;;;;;;5053611;28;20115;-72
2023/07/11 00:05:37;;;;;;;6.28;5.65;;;22.20;61.60;;;;;;5053318;28;20029;-71
2023/07/11 00:08:03;;;;;;;7.95;6.07;;;22.20;61.90;;;;;;5053271;28;20036;-72
2023/07/11 00:10:29;;;;;;;9.20;6.13;;;22.10;62.40;;;;;;5053331;28;20033;-72
2023/07/11 00:12:54;;;;;;;8.55;5.80;;;22.10;62.50;;;;;;5053559;28;20044;-73
2023/07/11 00:15:20;;;;;;;6.60;5.65;;;22.10;62.80;;;;;;5053475;28;20029;-72
2023/07/11 00:17:47;;;;;;;8.23;5.70;;;22.10;62.10;;;;;;5053188;28;20032;-71
2023/07/11 00:20:16;;;;;;;6.72;6.03;;;22.00;62.20;;;;;;5053492;28;20024;-71
2023/07/11 00:22:43;;;;;;;9.02;5.68;;;21.90;62.10;;;;;;5053339;28;20423;-72
2023/07/11 00:25:09;;;;;;;8.88;5.50;;;21.90;62.50;;;;;;5053323;28;20082;-71
2023/07/11 00:27:35;;;;;;;7.95;5.80;;;21.90;62.50;;;;;;5053342;28;20100;-71
2023/07/11 00:30:02;;;;;;;6.90;5.95;;;22.00;62.40;;;;;;5053151;28;20041;-71
2023/07/11 00:32:27;;;;;;;6.25;5.45;;;22.00;62.30;;;;;;5053281;28;20028;-71
2023/07/11 00:34:53;;;;;;;7.47;5.68;;;22.00;62.30;;;;;;5053211;28;20025;-71
2023/07/11 00:37:19;;;;;;;11.48;6.07;;;22.00;62.30;;;;;;5053059;28;20390;-71
2023/07/11 00:39:44;;;;;;;7.07;5.68;;;22.10;62.10;;;;;;5052856;28;20021;-72
2023/07/11 00:42:10;;;;;;;9.15;5.63;;;22.10;62.10;;;;;;5053056;28;20053;-70
2023/07/11 00:44:50;;;;;;;7.32;5.65;;;22.10;62.00;;;;;;5052961;28;20028;-71
2023/07/11 00:47:16;;;;;;;11.20;6.47;;;22.10;61.90;;;;;;5052968;28;20075;-71
2023/07/11 00:49:41;;;;;;;8.57;5.72;;;22.00;61.90;;;;;;5052678;28;20029;-72
2023/07/11 00:52:07;;;;;;;7.03;5.75;;;22.10;62.10;;;;;;5052947;28;20108;-71
2023/07/11 00:54:35;;;;;;;9.82;6.38;;;22.00;62.30;;;;;;5052854;28;20109;-71
2023/07/11 00:57:04;;;;;;;10.70;6.68;;;22.10;62.10;;;;;;5052897;28;20021;-72
2023/07/11 00:59:30;;;;;;;7.53;5.70;;;22.10;61.90;;;;;;5052723;28;20017;-72
2023/07/11 01:02:11;;;;;;;6.93;6.05;;;22.10;61.90;;;;;;5052888;28;20478;-72
2023/07/11 01:04:38;;;;;;;7.95;5.50;;;22.10;61.50;;;;;;5052777;28;20029;-71
2023/07/11 01:07:07;;;;;;;8.95;5.65;;;22.10;61.90;;;;;;5052759;28;20427;-71
2023/07/11 01:09:33;;;;;;;8.55;6.00;;;22.10;61.40;;;;;;5052359;28;20033;-71
2023/07/11 01:12:02;;;;;;;6.30;5.45;;;22.10;61.20;;;;;;5052581;28;20032;-71
2023/07/11 01:14:28;;;;;;;7.15;5.35;;;22.10;61.20;;;;;;5052474;28;20033;-71
2023/07/11 01:16:54;;;;;;;7.32;5.80;;;22.10;61.10;;;;;;5052534;28;20025;-71
2023/07/11 01:19:22;;;;;;;7.40;5.68;;;22.10;61.20;;;;;;5053778;28;20354;-71
2023/07/11 01:21:47;;;;;;;10.25;5.70;;;22.10;61.40;;;;;;5056659;28;20524;-71
2023/07/11 01:24:13;;;;;;;8.52;5.60;;;22.00;61.50;;;;;;5055509;28;20061;-72
2023/07/11 01:26:39;;;;;;;6.75;5.40;;;21.90;61.80;;;;;;5055322;28;20052;-71
2023/07/11 01:29:05;;;;;;;9.15;5.57;;;21.90;62.00;;;;;;5056580;28;20381;-71
2023/07/11 01:31:33;;;;;;;8.32;5.78;;;22.00;61.60;;;;;;5055105;28;20029;-71
2023/07/11 01:34:03;;;;;;;8.77;5.57;;;22.10;61.30;;;;;;5055215;28;20029;-71
2023/07/11 01:36:29;;;;;;;9.35;5.65;;;22.20;60.50;;;;;;5056524;28;20083;-71
2023/07/11 01:38:56;;;;;;;9.90;5.70;;;22.20;60.40;;;;;;5056435;28;20037;-72
2023/07/11 01:41:22;;;;;;;13.07;6.45;;;22.30;60.60;;;;;;5055043;28;20079;-71
2023/07/11 01:43:48;;;;;;;9.80;5.80;;;22.40;60.10;;;;;;5056331;28;20033;-72
2023/07/11 01:46:14;;;;;;;7.47;5.57;;;22.50;59.90;;;;;;5054969;28;20120;-71
2023/07/11 01:48:39;;;;;;;6.82;5.10;;;22.50;59.30;;;;;;5056206;28;20086;-72
2023/07/11 01:51:05;;;;;;;6.68;5.40;;;22.50;58.90;;;;;;5056264;28;20055;-72
2023/07/11 01:53:31;;;;;;;7.38;4.95;;;22.50;58.80;;;;;;5056193;28;20021;-72
2023/07/11 01:56:02;;;;;;;7.10;5.32;;;22.30;58.40;;;;;;5056170;28;20037;-71
2023/07/11 01:58:28;;;;;;;7.80;5.05;;;22.30;58.80;;;;;;5056017;28;20111;-71
2023/07/11 02:00:55;;;;;;;6.55;4.60;;;22.30;58.70;;;;;;5056184;28;20029;-72
2023/07/11 02:03:21;;;;;;;6.05;5.07;;;22.40;58.90;;;;;;5056042;28;20029;-72
2023/07/11 02:05:47;;;;;;;7.10;5.07;;;22.40;58.50;;;;;;5056067;28;20047;-72
2023/07/11 02:08:13;;;;;;;7.32;5.18;;;22.50;58.60;;;;;;5056025;28;20461;-71
2023/07/11 02:10:38;;;;;;;7.28;5.05;;;22.60;58.40;;;;;;5055917;28;20451;-72
2023/07/11 02:13:04;;;;;;;9.63;5.22;;;22.60;58.50;;;;;;5055883;28;20489;-72
2023/07/11 02:15:30;;;;;;;6.43;4.85;;;22.50;58.50;;;;;;5055871;28;20440;-72
2023/07/11 02:17:57;;;;;;;8.27;4.90;;;22.50;58.40;;;;;;5055593;28;20462;-72
2023/07/11 02:20:23;;;;;;;7.45;5.43;;;22.50;57.80;;;;;;5055821;28;20075;-74
2023/07/11 02:22:48;;;;;;;6.00;5.40;;;22.40;57.70;;;;;;5055707;28;20029;-72
2023/07/11 02:25:14;;;;;;;6.07;4.95;;;22.20;58.50;;;;;;5055682;28;20025;-72
2023/07/11 02:27:39;;;;;;;7.38;4.72;;;22.20;58.40;;;;;;5055312;28;20040;-72
2023/07/11 02:30:05;;;;;;;6.00;5.07;;;22.20;57.80;;;;;;5054737;28;20071;-72
2023/07/11 02:32:31;;;;;;;7.97;4.53;;;22.20;57.00;;;;;;5054945;28;20021;-72
2023/07/11 02:34:57;;;;;;;10.23;5.15;;;22.20;56.30;;;;;;5055499;28;20047;-72
2023/07/11 02:37:22;;;;;;;8.00;5.10;;;22.20;55.90;;;;;;5054069;28;20387;-72
2023/07/11 02:39:48;;;;;;;8.07;5.35;;;22.10;56.40;;;;;;5055470;28;20029;-72
2023/07/11 02:42:13;;;;;;;5.65;5.00;;;22.10;56.40;;;;;;5055191;28;20103;-72
2023/07/11 02:44:39;;;;;;;6.43;4.30;;;22.20;56.30;;;;;;5055252;28;20421;-71
2023/07/11 02:47:05;;;;;;;8.63;5.15;;;22.10;56.40;;;;;;5055158;28;20100;-73
2023/07/11 02:49:30;;;;;;;6.35;4.80;;;22.10;56.40;;;;;;5054984;28;20118;-72
2023/07/11 02:51:56;;;;;;;10.95;5.60;;;22.10;56.10;;;;;;5055166;28;20398;-73
2023/07/11 02:54:21;;;;;;;6.55;4.88;;;22.00;56.40;;;;;;5053750;28;20508;-72
2023/07/11 02:56:47;;;;;;;7.38;4.97;;;22.00;56.80;;;;;;5055115;28;20458;-72
2023/07/11 02:59:12;;;;;;;10.23;5.05;;;22.00;56.20;;;;;;5055014;28;20025;-75
2023/07/11 03:01:38;;;;;;;7.40;5.00;;;22.00;56.20;;;;;;5054879;28;20043;-72
2023/07/11 03:04:04;;;;;;;7.00;4.80;;;21.90;56.10;;;;;;5054901;28;20100;-72
2023/07/11 03:06:29;;;;;;;6.13;4.85;;;22.00;56.20;;;;;;5054814;28;20482;-73
2023/07/11 03:08:55;;;;;;;6.60;5.22;;;22.00;56.00;;;;;;5054845;28;20032;-72
2023/07/11 03:11:20;;;;;;;9.32;5.63;;;21.90;56.00;;;;;;5054691;28;20082;-72
2023/07/11 03:13:46;;;;;;;7.95;5.13;;;21.80;56.10;;;;;;5054547;28;20147;-72
2023/07/11 03:16:11;;;;;;;6.25;4.97;;;21.90;56.20;;;;;;5054672;28;20112;-71
2023/07/11 03:18:37;;;;;;;10.30;4.88;;;21.80;56.40;;;;;;5054366;28;20059;-72
2023/07/11 03:21:03;;;;;;;8.77;4.80;;;21.80;56.10;;;;;;5054647;28;20032;-72
2023/07/11 03:23:29;;;;;;;7.25;5.22;;;21.80;55.70;;;;;;5054531;28;20025;-72
2023/07/11 03:25:55;;;;;;;7.07;4.70;;;21.90;55.80;;;;;;5054419;28;20024;-72
2023/07/11 03:28:21;;;;;;;6.88;4.88;;;21.80;55.50;;;;;;5054453;28;20478;-72
2023/07/11 03:30:47;;;;;;;7.38;5.05;;;21.80;55.80;;;;;;5054200;28;20041;-72
2023/07/11 03:33:13;;;;;;;6.70;4.82;;;21.80;56.00;;;;;;5053306;28;20449;-72
2023/07/11 03:35:38;;;;;;;4.90;4.40;;;21.70;55.70;;;;;;5054351;28;20102;-73
2023/07/11 03:38:04;;;;;;;8.00;4.72;;;21.70;55.50;;;;;;5054192;28;20096;-73
2023/07/11 03:40:30;;;;;;;8.38;5.32;;;21.70;55.50;;;;;;5054193;28;20100;-72
2023/07/11 03:42:56;;;;;;;6.20;5.03;;;21.70;55.60;;;;;;5053775;28;20021;-72
2023/07/11 03:45:22;;;;;;;6.30;4.85;;;21.70;55.50;;;;;;5054067;28;20036;-72
2023/07/11 03:47:48;;;;;;;9.77;5.05;;;21.70;55.40;;;;;;5053692;28;20021;-72
2023/07/11 03:50:13;;;;;;;6.18;4.85;;;21.60;55.50;;;;;;5053806;28;20029;-72
2023/07/11 03:52:39;;;;;;;6.78;5.30;;;21.60;55.60;;;;;;5052564;28;20108;-72
2023/07/11 03:55:05;;;;;;;6.63;4.72;;;21.50;56.00;;;;;;5053741;28;20025;-72
2023/07/11 03:57:31;;;;;;;7.18;4.50;;;21.50;55.90;;;;;;5053760;28;20075;-72
2023/07/11 03:59:56;;;;;;;10.18;5.05;;;21.50;55.90;;;;;;5053804;28;20389;-73
2023/07/11 04:02:22;;;;;;;6.13;4.90;;;21.50;56.00;;;;;;5053668;28;20032;-72
2023/07/11 04:04:47;;;;;;;7.65;5.63;;;21.40;56.00;;;;;;5053629;28;20029;-72
2023/07/11 04:07:13;;;;;;;7.70;4.45;;;21.40;55.80;;;;;;5053569;28;20047;-72
2023/07/11 04:09:40;;;;;;;7.40;4.47;;;21.40;56.00;;;;;;5052124;28;20037;-72
2023/07/11 04:12:06;;;;;;;7.97;4.78;;;21.40;56.00;;;;;;5053480;28;20162;-72
2023/07/11 04:14:32;;;;;;;8.93;4.45;;;21.50;55.80;;;;;;5053382;28;20021;-73
2023/07/11 04:16:58;;;;;;;8.90;4.82;;;21.40;56.40;;;;;;5053378;28;20032;-73
2023/07/11 04:19:23;;;;;;;10.32;4.75;;;21.50;55.70;;;;;;5053206;28;20041;-74
2023/07/11 04:21:49;;;;;;;7.18;4.63;;;21.40;55.90;;;;;;5051968;28;20032;-73
2023/07/11 04:24:14;;;;;;;6.65;5.25;;;21.40;56.10;;;;;;5053141;28;20104;-72
2023/07/11 04:26:40;;;;;;;10.23;5.35;;;21.40;56.00;;;;;;5053286;28;20056;-74
2023/07/11 04:29:06;;;;;;;9.13;4.93;;;21.40;56.20;;;;;;5053129;28;20044;-72
2023/07/11 04:31:32;;;;;;;5.68;4.28;;;21.50;55.70;;;;;;5053116;28;20021;-72
2023/07/11 04:33:57;;;;;;;6.85;4.95;;;21.50;55.80;;;;;;5053460;28;20072;-73
2023/07/11 04:36:23;;;;;;;7.07;4.57;;;21.60;55.00;;;;;;5053305;28;20139;-73
2023/07/11 04:38:48;;;;;;;8.00;4.60;;;21.60;54.90;;;;;;5053164;28;20091;-76
2023/07/11 04:41:14;;;;;;;6.93;4.75;;;21.60;55.20;;;;;;5065474;28;20484;-72
2023/07/11 04:43:40;;;;;;;7.28;4.78;;;21.60;55.00;;;;;;5072942;28;20388;-73
2023/07/11 04:46:06;;;;;;;7.55;5.15;;;21.60;56.10;;;;;;5072517;28;20059;-73
2023/07/11 04:48:32;;;;;;;8.30;5.10;;;21.70;55.20;;;;;;5072896;28;20032;-73
2023/07/11 04:51:03;;;;;;;7.88;4.80;;;21.70;55.30;;;;;;5071695;28;20029;-73
2023/07/11 04:53:30;;;;;;;12.27;5.20;;;21.70;55.20;;;;;;5072172;28;20115;-73
2023/07/11 04:55:57;;;;;;;9.45;5.60;;;21.70;54.90;;;;;;5072909;28;20024;-73
2023/07/11 04:58:24;;;;;;;6.57;4.95;;;21.70;55.20;;;;;;5072850;28;20057;-73
2023/07/11 05:00:50;;;;;;;9.00;5.35;;;21.70;55.20;;;;;;5072822;28;20024;-73
2023/07/11 05:03:17;;;;;;;8.73;4.72;;;21.80;54.80;;;;;;5071524;28;20024;-73
2023/07/11 05:05:42;;;;;;;7.72;4.93;;;21.80;54.70;;;;;;5072449;28;20218;-73
2023/07/11 05:08:08;;;;;;;7.93;5.10;;;21.80;54.50;;;;;;5072568;28;20052;-73
2023/07/11 05:10:33;;;;;;;7.63;5.10;;;21.80;54.30;;;;;;5072456;28;20039;-73
2023/07/11 05:12:59;;;;;;;6.40;4.68;;;21.80;54.00;;;;;;5072508;28;20030;-72
2023/07/11 05:15:25;;;;;;;10.50;5.13;;;21.90;54.10;;;;;;5072513;28;20029;-72
2023/07/11 05:17:50;;;;;;;8.05;4.75;;;22.00;53.30;;;;;;5072261;28;20033;-72
2023/07/11 05:20:16;;;;;;;5.07;4.32;;;22.10;53.50;;;;;;5072481;28;20064;-74
2023/07/11 05:22:41;;;;;;;7.32;4.63;;;22.20;52.10;;;;;;5072396;28;20033;-73
2023/07/11 05:25:07;;;;;;;7.03;4.63;;;22.40;51.60;;;;;;5072230;28;20025;-72
2023/07/11 05:27:33;;;;;;;9.63;4.82;;;22.50;51.40;;;;;;5072448;28;20021;-72
2023/07/11 05:29:59;;;;;;;7.82;4.65;;;22.60;51.00;;;;;;5072029;28;20047;-71
2023/07/11 05:32:24;;;;;;;10.80;5.03;;;22.60;51.40;;;;;;5072184;28;20025;-73
2023/07/11 05:34:50;;;;;;;6.07;4.80;;;22.70;51.30;;;;;;5072304;28;20036;-73
2023/07/11 05:37:15;;;;;;;5.75;4.03;;;22.80;51.60;;;;;;5072425;28;20025;-73
2023/07/11 05:39:41;;;;;;;9.05;4.93;;;22.90;50.90;;;;;;5072895;28;20028;-73
2023/07/11 05:42:07;;;;;;;9.50;4.82;;;23.00;50.50;;;;;;5073293;28;20024;-73
2023/07/11 05:44:32;;;;;;;7.38;5.40;;;23.10;50.30;;;;;;5072226;28;20481;-73
2023/07/11 05:46:58;;;;;;;7.35;4.60;;;23.20;49.80;;;;;;5072350;28;20032;-73
2023/07/11 05:49:23;;;;;;;7.72;4.80;;;23.20;50.00;;;;;;5072304;28;20044;-73
2023/07/11 05:51:49;;;;;;;9.60;4.75;;;23.30;49.90;;;;;;5072102;28;20028;-71
2023/07/11 05:54:15;;;;;;;6.07;4.88;;;23.40;49.20;;;;;;5072215;28;20028;-72
2023/07/11 05:56:41;;;;;;;6.22;4.43;;;23.50;48.90;;;;;;5071965;28;20059;-72
2023/07/11 05:59:07;;;;;;;8.68;4.47;;;23.60;48.60;;;;;;5072227;28;20070;-73
2023/07/11 06:01:33;;;;;;;7.97;4.40;;;23.70;48.50;;;;;;5072106;28;20021;-73
2023/07/11 06:04:11;;;;;;;5.72;4.65;;;23.80;48.40;;;;;;5072071;28;20081;-73
2023/07/11 06:06:42;;;;;;;5.55;4.38;;;23.90;48.10;;;;;;5075318;28;20021;-72
2023/07/11 06:09:13;;;;;;;7.40;4.57;;;23.90;48.40;;;;;;5075677;28;20488;-74
2023/07/11 06:11:39;;;;;;;7.10;4.68;;;24.00;48.00;;;;;;5075783;28;20036;-74
2023/07/11 06:14:05;;;;;;;8.73;4.88;;;24.10;47.90;;;;;;5075640;28;20025;-76
2023/07/11 06:16:31;;;;;;;9.25;4.95;;;24.30;47.80;;;;;;5075413;28;20044;-72
2023/07/11 06:18:57;;;;;;;8.10;5.00;;;24.30;48.10;;;;;;5075523;28;20052;-73
2023/07/11 06:21:22;;;;;;;8.65;4.90;;;24.40;48.10;;;;;;5075380;28;20334;-73
2023/07/11 06:23:48;;;;;;;8.75;4.75;;;24.50;47.70;;;;;;5075533;28;20032;-73
2023/07/11 06:26:14;;;;;;;8.30;4.85;;;24.70;47.40;;;;;;5075150;28;20036;-72
2023/07/11 06:28:40;;;;;;;7.38;4.57;;;24.80;47.10;;;;;;5075202;28;20017;-71
2023/07/11 06:31:11;;;;;;;10.10;5.60;;;24.80;46.70;;;;;;5075278;28;20029;-72
2023/07/11 06:33:37;;;;;;;6.72;4.80;;;24.90;47.00;;;;;;5075440;28;20107;-73
2023/07/11 06:36:04;;;;;;;6.55;4.47;;;25.00;47.00;;;;;;5075242;28;20134;-74
2023/07/11 06:38:30;;;;;;;8.07;4.68;;;25.20;47.60;;;;;;5075140;28;20107;-73
2023/07/11 06:40:56;;;;;;;7.35;4.50;;;25.30;47.40;;;;;;5073844;28;20024;-73
2023/07/11 06:43:24;;;;;;;6.97;4.82;;;25.40;46.30;;;;;;5074995;28;20043;-73
2023/07/11 06:45:55;;;;;;;10.93;5.20;;;25.50;45.90;;;;;;5075174;28;20203;-73
2023/07/11 06:48:25;;;;;;;10.43;4.90;;;25.60;46.00;;;;;;5075253;28;20020;-73
2023/07/11 06:50:53;;;;;;;7.22;5.22;;;25.70;45.60;;;;;;5074842;28;20578;-73
2023/07/11 06:53:20;;;;;;;7.68;5.15;;;25.90;45.30;;;;;;5075016;28;20036;-73
2023/07/11 06:55:51;;;;;;;8.70;5.43;;;26.00;45.60;;;;;;5074820;28;20104;-73
2023/07/11 06:58:17;;;;;;;7.80;5.28;;;26.20;45.80;;;;;;5074841;28;20470;-73
2023/07/11 07:00:44;;;;;;;8.73;5.82;;;26.40;45.50;;;;;;5074781;28;20033;-73
2023/07/11 07:03:13;;;;;;;7.00;4.65;;;26.50;45.00;;;;;;5074643;28;20094;-72
2023/07/11 07:05:50;;;;;;;10.60;5.45;;;26.60;45.00;;;;;;5075604;28;20101;-72
2023/07/11 07:08:16;;;;;;;8.40;5.30;;;26.80;44.60;;;;;;5075406;28;20078;-72
2023/07/11 07:10:44;;;;;;;6.45;5.15;;;26.90;44.20;;;;;;5059395;28;20481;-72
2023/07/11 07:13:10;;;;;;;9.60;5.32;;;27.00;44.70;;;;;;5054481;28;20053;-74
2023/07/11 07:15:35;;;;;;;8.70;5.43;;;27.20;44.60;;;;;;5054462;28;20124;-76
2023/07/11 07:18:01;;;;;;;6.63;4.97;;;27.30;44.20;;;;;;5053533;28;20029;-73
2023/07/11 07:20:27;;;;;;;7.57;5.63;;;27.40;44.00;;;;;;5054387;28;20029;-73
2023/07/11 07:22:53;;;;;;;8.90;5.78;;;27.50;44.10;;;;;;5054344;28;20096;-72
2023/07/11 07:25:19;;;;;;;10.43;5.22;;;27.60;44.10;;;;;;5054368;28;20024;-74
2023/07/11 07:27:45;;;;;;;9.93;5.45;;;27.80;43.40;;;;;;5054879;28;20017;-75
2023/07/11 07:30:11;;;;;;;9.02;5.32;;;27.80;43.70;;;;;;5054077;28;20435;-74
2023/07/11 07:32:37;;;;;;;7.43;5.25;;;27.80;43.20;;;;;;5053974;28;20067;-75
2023/07/11 07:35:03;;;;;;;7.00;5.75;;;27.80;43.20;;;;;;5054042;28;20021;-75
2023/07/11 07:37:29;;;;;;;6.57;5.55;;;27.80;43.40;;;;;;5054268;28;20044;-75
2023/07/11 07:39:54;;;;;;;8.13;5.13;;;28.00;43.80;;;;;;5054021;28;20025;-74
2023/07/11 07:42:20;;;;;;;5.85;5.15;;;28.00;43.40;;;;;;5054066;28;20021;-75
2023/07/11 07:44:47;;;;;;;9.60;5.53;;;28.10;43.60;;;;;;5054127;28;20479;-75
2023/07/11 07:47:12;;;;;;;10.93;5.78;;;28.10;43.40;;;;;;5054037;28;20115;-74
2023/07/11 07:49:38;;;;;;;5.75;4.82;;;28.10;43.40;;;;;;5053725;28;20068;-72
2023/07/11 07:52:04;;;;;;;10.20;5.60;;;28.10;43.70;;;;;;5050815;28;20028;-71
2023/07/11 07:54:30;;;;;;;7.45;5.63;;;28.30;43.90;;;;;;5053647;28;20430;-72
2023/07/11 07:56:55;;;;;;;9.02;5.07;;;28.30;43.80;;;;;;5053507;28;20025;-74
2023/07/11 07:59:21;;;;;;;6.45;5.10;;;28.50;43.40;;;;;;5053436;28;20044;-73
2023/07/11 08:01:46;;;;;;;8.50;5.55;;;28.70;42.80;;;;;;5052281;28;20021;-72
2023/07/11 08:04:12;;;;;;;6.97;5.18;;;28.80;42.20;;;;;;5053341;28;20040;-72
2023/07/11 08:06:37;;;;;;;7.95;4.40;;;28.90;41.80;;;;;;5053549;28;20029;-72
2023/07/11 08:09:03;;;;;;;20.35;16.60;;;29.10;42.40;;;;;;5053356;28;20568;-73
2023/07/11 08:11:29;;;;;;;10.40;6.55;;;29.20;42.10;;;;;;5052300;28;20039;-74
2023/07/11 08:13:54;;;;;;;10.32;5.95;;;29.40;41.50;;;;;;5053563;28;20462;-72
2023/07/11 08:16:20;;;;;;;9.18;5.35;;;29.40;40.20;;;;;;5053543;28;20025;-73
2023/07/11 08:18:46;;;;;;;8.40;4.78;;;29.40;37.50;;;;;;5053021;28;20056;-74
2023/07/11 08:21:12;;;;;;;10.65;5.18;;;29.20;36.00;;;;;;5053389;28;20029;-73
2023/07/11 08:23:37;;;;;;;6.38;4.90;;;29.20;36.50;;;;;;5053243;28;20028;-74
2023/07/11 08:26:03;;;;;;;7.88;5.18;;;29.30;36.70;;;;;;5053020;28;20025;-74
2023/07/11 08:28:28;;;;;;;9.38;5.03;;;29.10;34.80;;;;;;5051611;28;20036;-74
2023/07/11 08:30:54;;;;;;;11.48;5.97;;;29.20;36.90;;;;;;5055363;28;20033;-74
2023/07/11 08:33:19;;;;;;;7.97;6.60;;;29.30;37.00;;;;;;5053783;28;20427;-73
2023/07/11 08:35:45;;;;;;;11.13;5.72;;;29.20;36.90;;;;;;5052663;28;20583;-74
2023/07/11 08:38:11;;;;;;;12.20;6.00;;;29.30;37.90;;;;;;5052745;28;20106;-73
2023/07/11 08:40:44;;;;;;;7.05;4.95;;;29.30;36.40;;;;;;5052767;28;20017;-73
2023/07/11 08:43:19;;;;;;;9.05;5.43;;;29.20;36.90;;;;;;5052980;28;20051;-73
2023/07/11 08:45:50;;;;;;;10.68;5.90;;;29.20;37.60;;;;;;5052740;28;20102;-73
2023/07/11 08:48:24;;;;;;;8.65;5.50;;;29.20;38.30;;;;;;5052802;28;20461;-74
2023/07/11 08:51:34;;;;;;;12.38;5.57;;;29.40;39.10;;;;;;5052593;28;20210;-73
2023/07/11 08:54:06;;;;;;;12.00;6.57;;;29.50;39.00;;;;;;5029870;28;20083;-73
2023/07/11 08:56:43;;;;;;;8.07;5.97;;;29.50;39.70;;;;;;5053104;28;20556;-72
2023/07/11 08:59:16;;;;;;;7.95;6.63;;;29.60;40.00;;;;;;5052541;28;20055;-74
2023/07/11 09:02:00;;;;;;;7.40;5.47;;;29.50;40.50;;;;;;5052454;28;20519;-73
2023/07/11 09:04:27;;;;;;;11.60;6.50;;;29.60;40.70;;;;;;5052485;28;20032;-74
2023/07/11 09:07:05;;;;;;;8.23;6.20;;;29.70;40.80;;;;;;5052674;28;20504;-74
2023/07/11 09:09:32;;;;;;;10.38;6.10;;;29.80;40.90;;;;;;5052340;28;20029;-74
2023/07/11 09:12:13;;;;;;;10.25;6.75;;;29.80;41.20;;;;;;5050988;28;20056;-74
2023/07/11 09:15:15;;;;;;;13.23;6.70;;;30.00;41.60;;;;;;5052374;28;20035;-73
2023/07/11 09:17:50;;;;;;;11.38;6.40;;;30.00;41.30;;;;;;5052470;28;20021;-75
2023/07/11 09:20:44;;;;;;;13.45;6.40;;;29.80;41.80;;;;;;5052401;28;20116;-73
2023/07/11 09:23:38;;;;;;;12.55;6.43;;;29.70;42.40;;;;;;5052382;28;20408;-73
2023/07/11 09:26:09;;;;;;;9.55;6.60;;;29.80;42.40;;;;;;5052739;28;20032;-76
2023/07/11 09:28:37;;;;;;;9.77;6.20;;;29.90;42.20;;;;;;5052545;28;20123;-76
2023/07/11 09:31:12;;;;;;;9.60;6.13;;;30.20;42.40;;;;;;5052225;28;20386;-74
2023/07/11 09:33:51;;;;;;;13.77;7.63;;;30.40;41.50;;;;;;5050790;28;20021;-75
2023/07/11 09:36:33;;;;;;;11.48;6.03;;;30.70;41.00;;;;;;5051096;28;20025;-78
2023/07/11 09:39:12;;;;;;;10.90;6.43;;;30.70;42.00;;;;;;5051313;28;20540;-75
2023/07/11 09:41:55;;;;;;;9.35;5.80;;;30.80;39.80;;;;;;5057326;28;20032;-74
2023/07/11 09:44:21;;;;;;;9.73;6.28;;;30.90;40.80;;;;;;5063886;28;20013;-73
2023/07/11 09:46:47;;;;;;;9.32;6.10;;;31.20;41.60;;;;;;5063949;28;20384;-74
2023/07/11 09:49:35;;;;;;;9.77;6.65;;;31.30;39.70;;;;;;5066083;28;20170;-74
2023/07/11 09:52:02;;;;;;;16.63;6.97;;;31.50;39.70;;;;;;5063951;28;20017;-75
2023/07/11 09:54:43;;;;;;;10.27;7.80;;;31.30;40.20;;;;;;5063808;28;20028;-73
2023/07/11 09:57:12;;;;;;;8.07;6.22;;;31.40;40.00;;;;;;5065401;28;20028;-73
2023/07/11 09:59:42;;;;;;;45.75;8.30;;;31.50;39.30;;;;;;5061657;28;20111;-74
2023/07/11 10:02:15;;;;;;;11.43;6.03;;;31.70;39.30;;;;;;5065318;28;20020;-73
2023/07/11 10:04:41;;;;;;;9.35;5.40;;;31.80;38.90;;;;;;5064375;28;20009;-74
2023/07/11 10:07:14;;;;;;;11.65;6.15;;;31.70;38.50;;;;;;5064322;28;20040;-72
2023/07/11 10:09:48;;;;;;;11.32;5.63;;;31.80;38.00;;;;;;5065066;28;20071;-72
2023/07/11 10:12:15;;;;;;;;;;;31.80;37.90;;;;;;5061484;28;20013;-73
2023/07/11 10:14:44;;;;;;;10.23;5.97;;;31.90;37.80;;;;;;5065477;28;19911;-72
2023/07/11 10:17:25;;;;;;;11.90;5.90;;;32.00;37.20;;;;;;5064002;28;20032;-73
2023/07/11 10:19:56;;;;;;;12.00;6.20;;;31.90;37.00;;;;;;5063473;28;20037;-73
2023/07/11 10:22:26;;;;;;;13.43;6.88;;;32.00;38.20;;;;;;5064933;28;20015;-74
2023/07/11 10:25:03;;;;;;;10.60;6.57;;;32.10;37.70;;;;;;5066942;28;20036;-72
2023/07/11 10:27:36;;;;;;;9.43;5.72;;;32.00;38.00;;;;;;5066202;28;20559;-72
2023/07/11 10:30:04;;;;;;;7.75;6.10;;;32.00;38.20;;;;;;5064386;28;20029;-73
2023/07/11 10:32:35;;;;;;;11.07;6.32;;;32.20;37.20;;;;;;5064761;28;20070;-72
2023/07/11 10:35:05;;;;;;;9.95;6.30;;;32.20;36.40;;;;;;5065022;28;20036;-71
2023/07/11 10:37:40;;;;;;;9.95;6.30;;;32.30;37.00;;;;;;5063737;28;20100;-73
2023/07/11 10:40:27;;;;;;;10.00;5.63;;;32.20;36.50;;;;;;5063944;28;20027;-73
2023/07/11 10:43:06;;;;;;;10.45;6.18;;;31.90;37.10;;;;;;5062313;28;20426;-72
2023/07/11 10:45:39;;;;;;;7.82;5.40;;;31.90;37.20;;;;;;5060695;28;20426;-72
2023/07/11 10:48:21;;;;;;;9.05;5.95;;;32.10;38.40;;;;;;5063898;28;20070;-72
2023/07/11 10:50:58;;;;;;;10.57;7.07;;;32.20;37.20;;;;;;5064161;28;20043;-71
2023/07/11 10:53:27;;;;;;;10.02;5.82;;;31.90;38.00;;;;;;5066648;28;20021;-72
2023/07/11 10:56:00;;;;;;;9.40;6.38;;;32.00;37.30;;;;;;5073333;28;20029;-73
2023/07/11 10:58:26;;;;;;;8.40;5.53;;;32.10;36.70;;;;;;5068494;28;20044;-73
2023/07/11 11:01:16;;;;;;;7.70;5.50;;;32.20;36.20;;;;;;5063253;28;20098;-73
2023/07/11 11:03:51;;;;;;;10.50;5.38;;;32.10;36.30;;;;;;5061312;28;20013;-73
2023/07/11 11:06:27;;;;;;;8.75;5.40;;;32.30;37.20;;;;;;5054165;28;20032;-74
2023/07/11 11:08:58;;;;;;;7.90;5.35;;;32.50;35.70;;;;;;5054555;28;20116;-84
2023/07/11 11:11:29;;;;;;;10.68;5.75;;;32.80;35.10;;;;;;5052665;28;20474;-76
2023/07/11 11:14:36;;;;;;;9.50;5.03;;;32.80;33.70;;;;;;5060225;28;20064;-76
2023/07/11 11:17:14;;;;;;;8.63;5.53;;;32.80;33.80;;;;;;5020781;28;20130;-74
2023/07/11 11:19:55;;;;;;;13.13;5.53;;;33.30;33.70;;;;;;5060487;28;20045;-75
2023/07/11 11:22:34;;;;;;;11.63;5.93;;;33.50;32.50;;;;;;5060689;28;20100;-73
2023/07/11 11:25:02;;;;;;;8.35;5.43;;;33.20;32.40;;;;;;5060079;28;20132;-73
2023/07/11 11:27:47;;;;;;;11.50;5.63;;;33.30;32.50;;;;;;5063414;28;20016;-73
2023/07/11 11:30:54;;;;;;;11.32;6.40;;;33.50;32.10;;;;;;5063893;28;20037;-73
2023/07/11 11:33:36;;;;;;;8.77;5.35;;;33.80;31.40;;;;;;5023610;28;20495;-73
2023/07/11 11:36:29;;;;;;;10.60;5.55;;;34.10;31.90;;;;;;5060902;28;20082;-73
2023/07/11 11:39:14;;;;;;;9.48;5.80;;;34.30;30.70;;;;;;5064247;28;20017;-73
2023/07/11 11:42:10;;;;;;;7.72;5.45;;;34.20;30.90;;;;;;5059811;28;20057;-73
2023/07/11 11:44:43;;;;;;;9.93;6.30;;;34.10;30.90;;;;;;5062490;28;20024;-72
2023/07/11 11:47:10;;;;;;;8.77;6.00;;;33.80;31.30;;;;;;5063580;28;20542;-73
2023/07/11 11:49:38;;;;;;;13.93;6.03;;;33.30;32.20;;;;;;5061517;28;20037;-74
2023/07/11 11:52:05;;;;;;;9.88;6.28;;;33.00;32.70;;;;;;5053340;28;20021;-74
2023/07/11 11:54:43;;;;;;;8.90;5.90;;;32.80;32.50;;;;;;5053678;28;20060;-75
2023/07/11 11:57:22;;;;;;;9.75;6.10;;;32.80;32.90;;;;;;5053611;28;20017;-74
2023/07/11 11:59:48;;;;;;;10.65;5.70;;;32.90;33.10;;;;;;5053674;28;20025;-74
2023/07/11 12:02:22;;;;;;;11.60;6.38;;;33.10;33.20;;;;;;5053234;28;20025;-74
2023/07/11 12:05:06;;;;;;;7.25;5.93;;;33.50;32.70;;;;;;5053381;28;20544;-74
2023/07/11 12:07:35;;;;;;;9.83;5.97;;;33.90;29.60;;;;;;5063055;28;20067;-73
2023/07/11 12:10:12;;;;;;;12.23;6.18;;;34.20;30.80;;;;;;5064689;28;20040;-72
2023/07/11 12:12:38;;;;;;;8.85;6.03;;;34.40;31.20;;;;;;5073411;28;20020;-72
2023/07/11 12:15:12;;;;;;;11.50;5.95;;;34.60;30.10;;;;;;5073230;28;20029;-73
2023/07/11 12:17:38;;;;;;;8.95;6.43;;;35.00;29.90;;;;;;5073105;28;20028;-72
2023/07/11 12:20:10;;;;;;;9.27;6.38;;;35.00;30.20;;;;;;5073355;28;20033;-74
2023/07/11 12:22:38;;;;;;;8.23;6.45;;;34.90;29.00;;;;;;5073496;28;20044;-74
2023/07/11 12:25:17;;;;;;;12.15;6.00;;;34.70;29.80;;;;;;5071940;28;20381;-73
2023/07/11 12:27:45;;;;;;;10.35;6.95;;;34.70;29.70;;;;;;5072958;28;20029;-71
2023/07/11 12:30:13;;;;;;;11.90;6.85;;;34.80;27.40;;;;;;5073115;28;20039;-73
2023/07/11 12:32:43;;;;;;;12.10;7.07;;;34.70;27.50;;;;;;5073133;28;20017;-74
2023/07/11 12:35:08;;;;;;;15.00;6.50;;;34.70;28.60;;;;;;5073052;28;20060;-74
2023/07/11 12:37:39;;;;;;;9.05;7.38;;;34.80;28.80;;;;;;5072726;28;20602;-74
2023/07/11 12:40:41;;;;;;;16.02;7.85;;;34.90;24.60;;;;;;5072606;28;20065;-73
2023/07/11 12:43:29;;;;;;;10.30;6.85;;;34.70;27.00;;;;;;5067618;28;20029;-74
2023/07/11 12:45:57;;;;;;;8.38;6.93;;;34.80;28.10;;;;;;5072599;28;20020;-75
2023/07/11 12:48:34;;;;;;;11.40;7.60;;;34.70;27.40;;;;;;5072820;28;20021;-75
2023/07/11 12:51:30;;;;;;;11.63;7.22;;;34.70;26.80;;;;;;5072552;28;20029;-74
2023/07/11 12:54:18;;;;;;;10.05;7.82;;;34.90;23.10;;;;;;5072984;28;20122;-75
2023/07/11 12:56:47;;;;;;;11.93;6.85;;;35.00;24.50;;;;;;5072702;28;20377;-74